Time;durP1;ratioP1;P1;durP2;ratioP2;P2;SDS_P1;SDS_P2;PMS_P1;PMS_P2;Temp;Humidity;BMP_temperature;BMP_pressure;BME280_temperature;BME280_humidity;BME280_pressure;Samples;Min_cycle;Max_cycle;Signal;HPM_P1;HPM_P2
2022/12/29 00:01:39;;;;;;;2.22;0.85;;;12.20;99.90;;;;;;5094595;28;20591;-73
2022/12/29 00:04:05;;;;;;;3.28;0.73;;;12.20;99.90;;;;;;5095094;28;20443;-73
2022/12/29 00:06:31;;;;;;;0.98;0.77;;;12.30;99.90;;;;;;5112753;28;20469;-73
2022/12/29 00:08:57;;;;;;;3.65;0.90;;;12.20;99.90;;;;;;5094703;28;20077;-73
2022/12/29 00:11:27;;;;;;;0.73;0.63;;;12.30;99.90;;;;;;5094480;28;20099;-74
2022/12/29 00:16:39;;;;;;;2.25;1.05;;;12.20;99.90;;;;;;5112051;28;20101;-73
2022/12/29 00:19:05;;;;;;;4.05;1.10;;;12.30;99.90;;;;;;5094869;28;20038;-73
2022/12/29 00:35:26;;;;;;;2.53;0.98;;;12.30;99.90;;;;;;5112983;28;20031;-73
2022/12/29 00:46:05;;;;;;;1.65;0.77;;;12.30;99.90;;;;;;5113487;28;20092;-73
2022/12/29 00:51:15;;;;;;;0.95;0.70;;;12.30;99.90;;;;;;5112984;28;20418;-73
2022/12/29 00:53:40;;;;;;;1.42;0.70;;;12.30;99.90;;;;;;5112659;28;20107;-73
2022/12/29 00:56:06;;;;;;;3.13;0.95;;;12.30;99.90;;;;;;5113065;28;20419;-73
2022/12/29 00:58:32;;;;;;;1.55;0.82;;;12.40;99.90;;;;;;5112331;28;20460;-73
2022/12/29 01:01:05;;;;;;;4.18;1.25;;;12.40;99.90;;;;;;5094472;28;20019;-73
2022/12/29 01:03:31;;;;;;;3.05;0.85;;;12.40;99.90;;;;;;5096211;28;20046;-73
2022/12/29 01:06:00;;;;;;;3.47;1.10;;;12.30;99.90;;;;;;5098406;28;20379;-73
2022/12/29 01:08:28;;;;;;;2.75;1.00;;;12.30;99.90;;;;;;5116338;28;20102;-74
2022/12/29 01:11:00;;;;;;;4.72;1.10;;;12.30;99.90;;;;;;5098233;28;20110;-73
2022/12/29 01:13:26;;;;;;;2.58;1.08;;;12.30;99.90;;;;;;5097679;28;20024;-73
2022/12/29 01:15:53;;;;;;;3.47;1.08;;;12.30;99.90;;;;;;5097631;28;20052;-73
2022/12/29 01:18:19;;;;;;;1.65;1.10;;;12.20;99.90;;;;;;5116443;28;20027;-73
2022/12/29 01:20:45;;;;;;;2.20;0.88;;;12.30;99.90;;;;;;5097505;28;20019;-73
2022/12/29 01:23:11;;;;;;;2.78;1.02;;;12.20;99.90;;;;;;5116323;28;20430;-73
2022/12/29 01:25:36;;;;;;;1.90;0.80;;;12.20;99.90;;;;;;5097490;28;20058;-73
2022/12/29 01:28:02;;;;;;;2.55;1.10;;;12.20;99.90;;;;;;5116450;28;20549;-73
2022/12/29 01:30:27;;;;;;;2.15;0.75;;;12.20;99.90;;;;;;5097517;28;20080;-73
2022/12/29 01:32:53;;;;;;;5.05;0.90;;;12.20;99.90;;;;;;5116161;28;20030;-73
2022/12/29 01:35:18;;;;;;;2.58;0.90;;;12.10;99.90;;;;;;5097823;28;20064;-73
2022/12/29 01:37:44;;;;;;;1.95;0.80;;;12.10;99.90;;;;;;5096904;28;20480;-73
2022/12/29 01:40:10;;;;;;;4.97;1.15;;;12.10;99.90;;;;;;5115975;28;20066;-73
2022/12/29 01:42:36;;;;;;;6.57;1.10;;;12.10;99.90;;;;;;5115414;28;20035;-73
2022/12/29 01:45:03;;;;;;;3.80;1.02;;;12.10;99.90;;;;;;5097554;28;20027;-73
2022/12/29 01:47:42;;;;;;;3.08;0.80;;;12.10;99.90;;;;;;5115527;28;20054;-74
2022/12/29 01:50:22;;;;;;;2.72;1.17;;;12.10;99.90;;;;;;5115812;28;20030;-73
2022/12/29 01:53:06;;;;;;;3.15;1.00;;;12.10;99.90;;;;;;5115562;28;20030;-74
2022/12/29 01:55:37;;;;;;;3.72;1.33;;;12.10;99.90;;;;;;5096879;28;20487;-74
2022/12/29 01:58:06;;;;;;;2.38;0.95;;;12.10;99.90;;;;;;5115980;28;20024;-73
2022/12/29 02:00:31;;;;;;;4.78;1.00;;;12.10;99.90;;;;;;5115037;28;20043;-73
2022/12/29 02:02:57;;;;;;;2.75;0.70;;;12.00;99.90;;;;;;5096904;28;20028;-73
2022/12/29 02:05:33;;;;;;;2.05;0.90;;;12.10;99.90;;;;;;5115537;28;20110;-73
2022/12/29 02:08:00;;;;;;;2.63;0.93;;;12.10;99.90;;;;;;5115289;28;20487;-73
2022/12/29 02:10:28;;;;;;;4.55;1.20;;;12.10;99.90;;;;;;5115113;28;20102;-73
2022/12/29 02:12:54;;;;;;;1.38;0.77;;;12.10;99.90;;;;;;5096895;28;20035;-73
2022/12/29 02:15:27;;;;;;;1.70;0.88;;;12.10;99.90;;;;;;5114913;28;20115;-74
2022/12/29 02:18:22;;;;;;;3.42;0.90;;;12.10;99.90;;;;;;5115364;28;20115;-73
2022/12/29 02:21:21;;;;;;;2.78;1.10;;;12.10;99.90;;;;;;5114956;28;20046;-73
2022/12/29 02:24:20;;;;;;;3.42;0.88;;;12.10;99.90;;;;;;5096315;28;20401;-73
2022/12/29 02:26:54;;;;;;;2.88;0.88;;;12.10;99.90;;;;;;5096298;28;20405;-73
2022/12/29 02:29:29;;;;;;;1.65;0.65;;;12.10;99.90;;;;;;5097001;28;20096;-73
2022/12/29 02:32:18;;;;;;;2.10;0.80;;;12.10;99.90;;;;;;5096593;28;20020;-73
2022/12/29 02:35:10;;;;;;;1.27;0.68;;;12.20;99.90;;;;;;5096213;28;20084;-73
2022/12/29 02:37:46;;;;;;;3.03;0.73;;;12.10;99.90;;;;;;5114359;28;20038;-73
2022/12/29 02:40:38;;;;;;;1.85;0.80;;;12.10;99.90;;;;;;5096453;28;20044;-73
2022/12/29 02:43:08;;;;;;;;;;;12.20;99.90;;;;;;5096895;28;20034;-73
2022/12/29 02:46:03;;;;;;;3.10;0.77;;;12.10;99.90;;;;;;5113812;28;19911;-73
2022/12/29 02:48:45;;;;;;;1.60;0.80;;;12.10;99.90;;;;;;5095860;28;20028;-75
2022/12/29 02:51:17;;;;;;;;;;;12.10;99.90;;;;;;5096988;28;20054;-73
2022/12/29 02:56:28;;;;;;;2.90;0.70;;;12.10;99.90;;;;;;5114418;28;20057;-73
2022/12/29 02:58:53;;;;;;;2.22;0.70;;;12.00;99.90;;;;;;5095818;28;20020;-73
2022/12/29 03:01:28;;;;;;;4.20;1.00;;;12.00;99.90;;;;;;5096144;28;20024;-73
2022/12/29 03:04:12;;;;;;;3.38;1.00;;;12.00;99.90;;;;;;5113887;28;20016;-73
2022/12/29 03:07:02;;;;;;;1.05;0.70;;;11.90;99.90;;;;;;5113799;28;20115;-73
2022/12/29 03:09:57;;;;;;;1.73;0.70;;;12.00;99.90;;;;;;5114300;28;20027;-74
2022/12/29 03:16:23;;;;;;;2.05;0.85;;;12.00;99.90;;;;;;5070343;28;20111;-73
2022/12/29 03:19:06;;;;;;;1.25;0.68;;;11.90;99.90;;;;;;5095409;28;20055;-73
2022/12/29 03:24:32;;;;;;;1.20;0.70;;;12.00;99.90;;;;;;5114061;28;20068;-73
2022/12/29 03:27:01;;;;;;;2.15;0.80;;;12.10;99.90;;;;;;5113431;28;20035;-73
2022/12/29 03:29:29;;;;;;;1.20;0.75;;;12.10;99.90;;;;;;5113597;28;20396;-73
2022/12/29 03:31:56;;;;;;;2.05;0.60;;;12.20;99.90;;;;;;5095033;28;20031;-73
2022/12/29 03:34:23;;;;;;;1.42;0.63;;;12.20;99.90;;;;;;5095432;28;20027;-73
2022/12/29 03:37:06;;;;;;;2.33;0.60;;;12.20;99.90;;;;;;5094878;28;20036;-73
2022/12/29 03:39:32;;;;;;;1.33;0.70;;;12.20;99.90;;;;;;5095351;28;20425;-77
2022/12/29 03:42:16;;;;;;;0.98;0.80;;;12.20;99.90;;;;;;5095067;28;20055;-73
2022/12/29 03:44:43;;;;;;;2.42;0.80;;;12.20;99.90;;;;;;5094876;28;20023;-73
2022/12/29 03:47:14;;;;;;;1.67;0.80;;;12.20;99.90;;;;;;5095223;28;20122;-73
2022/12/29 03:49:40;;;;;;;1.27;0.60;;;12.10;99.90;;;;;;5094827;28;20111;-73
2022/12/29 03:52:06;;;;;;;1.02;0.80;;;12.00;99.90;;;;;;5095219;28;20055;-73
2022/12/29 03:54:32;;;;;;;2.45;1.25;;;12.00;99.90;;;;;;5095269;28;20027;-73
2022/12/29 03:56:58;;;;;;;3.50;1.08;;;12.00;99.90;;;;;;5094689;28;20515;-73
2022/12/29 03:59:23;;;;;;;1.63;0.80;;;12.00;99.90;;;;;;5095184;28;20023;-73
2022/12/29 04:01:49;;;;;;;1.23;0.73;;;12.00;99.90;;;;;;5094471;28;20027;-73
2022/12/29 04:04:15;;;;;;;1.73;0.70;;;12.00;99.90;;;;;;5095120;28;20028;-73
2022/12/29 04:06:41;;;;;;;4.07;0.80;;;12.00;99.90;;;;;;5112848;28;20437;-73
2022/12/29 04:09:06;;;;;;;2.70;0.80;;;12.00;99.90;;;;;;5095163;28;20047;-73
2022/12/29 04:11:32;;;;;;;1.23;0.70;;;12.00;99.90;;;;;;5094969;28;20035;-74
2022/12/29 04:13:58;;;;;;;3.40;1.00;;;12.10;99.90;;;;;;5094524;28;20475;-73
2022/12/29 04:16:23;;;;;;;3.20;0.80;;;12.10;99.90;;;;;;5112846;28;20412;-73
2022/12/29 04:18:49;;;;;;;2.95;0.73;;;12.10;99.90;;;;;;5094031;28;20483;-73
2022/12/29 04:21:14;;;;;;;2.75;0.80;;;12.10;99.90;;;;;;5094852;28;20020;-73
2022/12/29 04:23:40;;;;;;;1.02;0.68;;;12.10;99.90;;;;;;5094376;28;20027;-73
2022/12/29 04:26:09;;;;;;;1.30;0.88;;;12.10;99.90;;;;;;5095113;28;20032;-73
2022/12/29 04:28:36;;;;;;;3.90;0.90;;;12.10;99.90;;;;;;5094324;28;20050;-75
2022/12/29 04:31:03;;;;;;;1.17;0.60;;;12.10;99.90;;;;;;5094700;28;20031;-73
2022/12/29 04:33:29;;;;;;;2.90;0.70;;;12.20;99.90;;;;;;5094782;28;20020;-73
2022/12/29 04:35:55;;;;;;;1.10;0.68;;;12.20;99.90;;;;;;5093970;28;20611;-73
2022/12/29 04:38:22;;;;;;;2.08;0.80;;;12.10;99.90;;;;;;5096671;28;20024;-73
2022/12/29 04:40:48;;;;;;;1.27;0.65;;;12.10;99.90;;;;;;5098364;28;20020;-73
2022/12/29 04:43:14;;;;;;;1.60;1.25;;;12.20;99.90;;;;;;5098789;28;20052;-73
2022/12/29 04:45:46;;;;;;;2.80;0.60;;;12.10;99.90;;;;;;5116378;28;20082;-73
2022/12/29 04:48:12;;;;;;;2.90;0.77;;;12.20;99.90;;;;;;5117013;28;20098;-73
2022/12/29 04:50:39;;;;;;;4.03;0.90;;;12.20;99.90;;;;;;5098307;28;20122;-73
2022/12/29 04:53:05;;;;;;;2.08;0.82;;;12.10;99.90;;;;;;5098580;28;20377;-73
2022/12/29 04:55:31;;;;;;;1.25;0.70;;;12.20;99.90;;;;;;5117108;28;20028;-73
2022/12/29 04:57:56;;;;;;;1.90;0.90;;;12.20;99.90;;;;;;5098017;28;20048;-73
2022/12/29 05:00:22;;;;;;;1.33;0.80;;;12.20;99.90;;;;;;5116795;28;20032;-73
2022/12/29 05:02:48;;;;;;;1.73;0.85;;;12.20;99.90;;;;;;5116269;28;20520;-73
2022/12/29 05:05:13;;;;;;;3.25;0.95;;;12.20;99.90;;;;;;5098287;28;20027;-73
2022/12/29 05:07:39;;;;;;;1.10;0.98;;;12.30;99.90;;;;;;5116193;28;20051;-74
2022/12/29 05:10:05;;;;;;;3.50;1.08;;;12.30;99.90;;;;;;5116316;28;20026;-73
2022/12/29 05:12:32;;;;;;;3.28;0.80;;;12.30;99.90;;;;;;5098287;28;20076;-73
2022/12/29 05:14:58;;;;;;;1.23;0.70;;;12.20;99.90;;;;;;5115925;28;20476;-73
2022/12/29 05:17:23;;;;;;;2.80;0.60;;;12.20;99.90;;;;;;5115903;28;20051;-73
2022/12/29 05:19:50;;;;;;;2.15;0.98;;;12.20;99.90;;;;;;5115963;28;20023;-73
2022/12/29 05:22:15;;;;;;;2.38;0.90;;;12.20;99.90;;;;;;5116318;28;20028;-73
2022/12/29 05:24:41;;;;;;;4.90;0.98;;;12.30;99.90;;;;;;5115991;28;20034;-73
2022/12/29 05:27:06;;;;;;;1.67;1.02;;;12.30;99.90;;;;;;5116398;28;20031;-73
2022/12/29 05:29:32;;;;;;;1.50;1.00;;;12.30;99.90;;;;;;5098111;28;20034;-73
2022/12/29 05:31:58;;;;;;;2.97;0.88;;;12.30;99.90;;;;;;5097499;28;20102;-73
2022/12/29 05:34:23;;;;;;;2.67;0.98;;;12.20;99.90;;;;;;5116153;28;20102;-73
2022/12/29 05:36:49;;;;;;;2.70;1.05;;;12.20;99.90;;;;;;5097289;28;20035;-73
2022/12/29 05:39:14;;;;;;;2.08;0.90;;;12.20;99.90;;;;;;5116036;28;20031;-73
2022/12/29 05:41:40;;;;;;;1.67;0.93;;;12.30;99.90;;;;;;5097379;28;20028;-73
2022/12/29 05:44:05;;;;;;;3.13;1.08;;;12.30;99.90;;;;;;5097907;28;20122;-73
2022/12/29 05:46:31;;;;;;;1.35;1.10;;;12.30;99.90;;;;;;5097691;28;20042;-73
2022/12/29 05:48:57;;;;;;;1.30;0.88;;;12.30;99.90;;;;;;5096651;28;20023;-73
2022/12/29 05:51:23;;;;;;;3.08;1.10;;;12.30;99.90;;;;;;5097507;28;20457;-73
2022/12/29 05:53:49;;;;;;;3.92;1.15;;;12.30;99.90;;;;;;5115194;28;20054;-73
2022/12/29 05:56:14;;;;;;;1.75;0.80;;;12.30;99.90;;;;;;5115637;28;20071;-73
2022/12/29 05:58:40;;;;;;;2.20;1.02;;;12.30;99.90;;;;;;5097103;28;20044;-78
2022/12/29 06:01:05;;;;;;;2.35;1.05;;;12.20;99.90;;;;;;5115896;28;20439;-73
2022/12/29 06:03:31;;;;;;;2.45;0.93;;;12.20;99.90;;;;;;5115495;28;20419;-73
2022/12/29 06:05:57;;;;;;;1.58;1.08;;;12.10;99.90;;;;;;5115310;28;20111;-73
2022/12/29 06:08:22;;;;;;;2.15;1.30;;;12.20;99.90;;;;;;5097275;28;20354;-74
2022/12/29 06:10:48;;;;;;;3.05;1.05;;;12.20;99.90;;;;;;5114897;28;20063;-73
2022/12/29 06:13:13;;;;;;;3.17;1.00;;;12.20;99.90;;;;;;5097305;28;20069;-74
2022/12/29 06:15:39;;;;;;;3.60;1.13;;;12.20;99.90;;;;;;5114739;28;20404;-73
2022/12/29 06:18:05;;;;;;;2.50;1.42;;;12.20;99.90;;;;;;5096547;28;20076;-73
2022/12/29 06:20:30;;;;;;;2.42;0.90;;;12.20;99.90;;;;;;5115488;28;20457;-73
2022/12/29 06:22:56;;;;;;;6.55;1.30;;;12.30;99.90;;;;;;5096073;28;20036;-73
2022/12/29 06:25:21;;;;;;;3.00;1.17;;;12.30;99.90;;;;;;5096960;28;20023;-74
2022/12/29 06:27:47;;;;;;;2.50;1.20;;;12.30;99.90;;;;;;5096252;28;20024;-73
2022/12/29 06:30:13;;;;;;;1.58;1.13;;;12.40;99.90;;;;;;5096725;28;20457;-73
2022/12/29 06:32:39;;;;;;;2.15;0.95;;;12.40;99.90;;;;;;5115025;28;20024;-73
2022/12/29 06:35:08;;;;;;;2.28;1.15;;;12.40;99.90;;;;;;5096139;28;20114;-73
2022/12/29 06:37:34;;;;;;;3.92;1.08;;;12.40;99.90;;;;;;5096490;28;20084;-73
2022/12/29 06:39:59;;;;;;;1.63;0.90;;;12.40;99.90;;;;;;5096213;28;20024;-73
2022/12/29 06:42:25;;;;;;;3.00;1.02;;;12.40;99.90;;;;;;5114769;28;20097;-73
2022/12/29 06:44:51;;;;;;;1.23;1.00;;;12.40;99.90;;;;;;5114189;28;20019;-73
2022/12/29 06:47:16;;;;;;;1.67;0.88;;;12.50;99.90;;;;;;5095993;28;20399;-73
2022/12/29 06:49:42;;;;;;;1.77;1.00;;;12.50;99.90;;;;;;5096404;28;20067;-73
2022/12/29 06:52:07;;;;;;;2.17;1.00;;;12.40;99.90;;;;;;5095910;28;20525;-73
2022/12/29 06:54:33;;;;;;;3.00;1.05;;;12.40;99.90;;;;;;5096505;28;20380;-73
2022/12/29 06:56:59;;;;;;;4.93;1.20;;;12.40;99.90;;;;;;5095682;28;20027;-73
2022/12/29 06:59:25;;;;;;;3.05;1.00;;;12.40;99.90;;;;;;5096200;28;20028;-73
2022/12/29 07:01:51;;;;;;;3.45;0.90;;;12.40;99.90;;;;;;5113059;28;20031;-73
2022/12/29 07:04:17;;;;;;;4.97;1.42;;;12.40;99.90;;;;;;5096304;28;20024;-73
2022/12/29 07:06:43;;;;;;;1.73;1.15;;;12.40;99.90;;;;;;5096130;28;20027;-73
2022/12/29 07:09:09;;;;;;;5.60;1.33;;;12.40;99.90;;;;;;5095521;28;20020;-72
2022/12/29 07:11:35;;;;;;;3.70;1.40;;;12.50;99.90;;;;;;5113868;28;20381;-73
2022/12/29 07:14:01;;;;;;;2.80;1.05;;;12.40;99.90;;;;;;5095343;28;20031;-73
2022/12/29 07:16:26;;;;;;;2.80;1.08;;;12.50;99.90;;;;;;5113505;28;20052;-73
2022/12/29 07:18:52;;;;;;;2.65;1.10;;;12.50;99.90;;;;;;5095371;28;20472;-73
2022/12/29 07:21:18;;;;;;;2.53;1.17;;;12.40;99.90;;;;;;5095795;28;20024;-73
2022/12/29 07:23:44;;;;;;;3.40;1.33;;;12.40;99.90;;;;;;5095773;28;20032;-73
2022/12/29 07:26:12;;;;;;;2.90;1.17;;;12.40;99.90;;;;;;5094914;28;20085;-73
2022/12/29 07:28:38;;;;;;;3.70;1.13;;;12.40;99.90;;;;;;5095697;28;20027;-73
2022/12/29 07:31:04;;;;;;;1.45;0.98;;;12.50;99.90;;;;;;5113390;28;20026;-73
2022/12/29 07:33:30;;;;;;;2.78;1.02;;;12.40;99.90;;;;;;5095525;28;20077;-72
2022/12/29 07:35:56;;;;;;;1.95;0.90;;;12.40;99.90;;;;;;5094975;28;20027;-73
2022/12/29 07:38:22;;;;;;;5.20;1.30;;;12.50;99.90;;;;;;5095431;28;20028;-73
2022/12/29 07:40:47;;;;;;;1.90;1.00;;;12.40;99.90;;;;;;5095053;28;20026;-73
2022/12/29 07:43:13;;;;;;;3.33;1.20;;;12.50;99.90;;;;;;5095384;28;20127;-73
2022/12/29 07:45:38;;;;;;;2.75;1.38;;;12.50;99.90;;;;;;5113608;28;20099;-73
2022/12/29 07:48:07;;;;;;;4.57;1.25;;;12.50;99.90;;;;;;5112803;28;20035;-73
2022/12/29 07:50:33;;;;;;;2.58;1.00;;;12.50;99.90;;;;;;5095499;28;20027;-73
2022/12/29 07:52:59;;;;;;;3.33;1.30;;;12.50;99.90;;;;;;5113298;28;20031;-73
2022/12/29 07:55:25;;;;;;;4.03;1.30;;;12.50;99.90;;;;;;5095181;28;20410;-73
2022/12/29 07:57:53;;;;;;;1.80;1.20;;;12.50;99.90;;;;;;5112943;28;20039;-74
2022/12/29 08:00:19;;;;;;;1.67;0.85;;;12.50;99.90;;;;;;5095214;28;20027;-73
2022/12/29 08:02:45;;;;;;;2.35;1.30;;;12.50;99.90;;;;;;5095175;28;20024;-73
2022/12/29 08:05:11;;;;;;;3.25;0.90;;;12.50;99.90;;;;;;5094610;28;20062;-73
2022/12/29 08:07:36;;;;;;;3.55;1.20;;;12.50;99.90;;;;;;5095092;28;20032;-73
2022/12/29 08:10:03;;;;;;;3.08;1.10;;;12.50;99.90;;;;;;5094568;28;20488;-73
2022/12/29 08:12:28;;;;;;;3.28;1.30;;;12.60;99.90;;;;;;5094711;28;20023;-73
2022/12/29 08:14:54;;;;;;;5.82;1.20;;;12.60;99.90;;;;;;5112511;28;20028;-73
2022/12/29 08:17:19;;;;;;;2.17;1.20;;;12.70;99.90;;;;;;5094581;28;20442;-74
2022/12/29 08:19:45;;;;;;;1.70;0.95;;;12.70;99.90;;;;;;5112967;28;20052;-73
2022/12/29 08:22:11;;;;;;;4.03;1.10;;;12.80;99.90;;;;;;5112655;28;20028;-73
2022/12/29 08:24:36;;;;;;;1.55;1.00;;;12.80;99.90;;;;;;5095041;28;20063;-73
2022/12/29 08:27:02;;;;;;;3.95;1.13;;;12.90;99.90;;;;;;5094485;28;20095;-73
2022/12/29 08:29:27;;;;;;;2.50;1.20;;;12.90;99.90;;;;;;5113092;28;20077;-73
2022/12/29 08:31:53;;;;;;;2.85;1.33;;;12.90;99.90;;;;;;5094370;28;20480;-73
2022/12/29 08:34:18;;;;;;;2.42;1.17;;;13.00;99.90;;;;;;5113077;28;20024;-73
2022/12/29 08:36:44;;;;;;;2.13;0.98;;;13.00;99.90;;;;;;5094721;28;20066;-73
2022/12/29 08:39:10;;;;;;;3.13;0.95;;;13.00;99.90;;;;;;5094290;28;20031;-73
2022/12/29 08:41:35;;;;;;;1.70;1.20;;;13.00;99.90;;;;;;5113000;28;20517;-73
2022/12/29 08:44:01;;;;;;;2.50;1.08;;;13.00;99.90;;;;;;5094351;28;20517;-73
2022/12/29 08:46:26;;;;;;;2.70;1.23;;;13.00;99.90;;;;;;5094573;28;20039;-73
2022/12/29 08:48:53;;;;;;;3.65;1.27;;;13.10;99.90;;;;;;5094326;28;20053;-73
2022/12/29 08:51:19;;;;;;;1.75;0.90;;;13.10;99.90;;;;;;5112830;28;20028;-73
2022/12/29 08:53:44;;;;;;;2.10;1.00;;;13.20;99.90;;;;;;5094632;28;20076;-73
2022/12/29 08:56:11;;;;;;;3.10;1.08;;;13.10;99.90;;;;;;5112261;28;20078;-73
2022/12/29 08:58:37;;;;;;;2.28;1.08;;;13.20;99.90;;;;;;5112789;28;20038;-73
2022/12/29 09:01:03;;;;;;;2.53;1.20;;;13.20;99.90;;;;;;5112497;28;20462;-73
2022/12/29 09:03:29;;;;;;;3.83;1.15;;;13.10;99.90;;;;;;5094952;28;20076;-72
2022/12/29 09:05:55;;;;;;;2.17;1.00;;;13.20;99.90;;;;;;5093984;28;20019;-73
2022/12/29 09:08:21;;;;;;;8.80;1.08;;;13.20;99.90;;;;;;5094473;28;20377;-73
2022/12/29 09:10:46;;;;;;;2.53;0.90;;;13.20;99.90;;;;;;5094509;28;20399;-73
2022/12/29 09:13:14;;;;;;;3.88;0.98;;;13.20;99.90;;;;;;5093895;28;20023;-73
2022/12/29 09:15:39;;;;;;;2.95;0.82;;;13.30;99.90;;;;;;5112139;28;20055;-73
2022/12/29 09:18:06;;;;;;;3.78;1.10;;;13.40;99.90;;;;;;5112180;28;20032;-73
2022/12/29 09:20:31;;;;;;;2.00;0.90;;;13.40;99.90;;;;;;5112536;28;20020;-73
2022/12/29 09:22:57;;;;;;;2.20;1.00;;;13.50;99.90;;;;;;5093848;28;20028;-73
2022/12/29 09:25:24;;;;;;;1.80;1.17;;;13.50;99.90;;;;;;5115901;28;20020;-73
2022/12/29 09:27:52;;;;;;;2.83;1.00;;;13.50;99.90;;;;;;5116177;28;20027;-73
2022/12/29 09:30:18;;;;;;;1.70;1.10;;;13.50;99.90;;;;;;5097834;28;20079;-73
2022/12/29 09:32:44;;;;;;;4.68;1.40;;;13.50;99.90;;;;;;5097928;28;20031;-73
2022/12/29 09:35:10;;;;;;;1.05;0.80;;;13.50;99.90;;;;;;5097392;28;20533;-73
2022/12/29 09:37:36;;;;;;;2.63;1.00;;;13.50;99.90;;;;;;5097373;28;20046;-72
2022/12/29 09:40:01;;;;;;;1.50;0.98;;;13.40;99.90;;;;;;5097089;28;20127;-73
2022/12/29 09:43:00;;;;;;;1.63;1.00;;;13.50;99.90;;;;;;5116017;28;20467;-73
2022/12/29 09:45:35;;;;;;;3.72;1.27;;;13.40;99.90;;;;;;5097832;28;20027;-73
2022/12/29 09:48:03;;;;;;;2.42;1.10;;;13.40;99.90;;;;;;5115404;28;20524;-73
2022/12/29 09:50:32;;;;;;;3.65;0.90;;;13.40;99.90;;;;;;5097269;28;20057;-73
2022/12/29 09:53:30;;;;;;;3.05;1.10;;;13.40;99.90;;;;;;5097014;28;20033;-73
2022/12/29 09:55:58;;;;;;;2.42;1.00;;;13.50;99.90;;;;;;5058423;28;20041;-73
2022/12/29 09:58:29;;;;;;;3.72;0.95;;;13.50;99.90;;;;;;5115560;28;20028;-73
2022/12/29 10:01:26;;;;;;;5.93;1.25;;;13.50;99.90;;;;;;5096770;28;20035;-73
2022/12/29 10:03:55;;;;;;;3.45;0.90;;;13.50;99.90;;;;;;5009674;28;20030;-73
2022/12/29 10:06:37;;;;;;;2.75;1.00;;;13.60;99.90;;;;;;5097241;28;20031;-73
2022/12/29 10:09:12;;;;;;;6.55;0.98;;;13.50;99.90;;;;;;5096849;28;20028;-73
2022/12/29 10:11:59;;;;;;;1.15;0.80;;;13.50;99.90;;;;;;5097078;28;20465;-73
2022/12/29 10:14:24;;;;;;;2.15;1.10;;;13.50;99.90;;;;;;5115294;28;20032;-73
2022/12/29 10:17:09;;;;;;;2.53;1.25;;;13.40;99.90;;;;;;5114623;28;20058;-73
2022/12/29 10:19:55;;;;;;;7.43;1.48;;;13.40;99.90;;;;;;5115567;28;20034;-73
2022/12/29 10:22:26;;;;;;;2.78;0.93;;;13.30;99.90;;;;;;5115507;28;20409;-73
2022/12/29 10:24:56;;;;;;;1.88;0.90;;;13.30;99.90;;;;;;5096959;28;20023;-73
2022/12/29 10:27:23;;;;;;;7.20;1.52;;;13.30;99.90;;;;;;5096795;28;20039;-73
2022/12/29 10:29:54;;;;;;;3.35;1.38;;;13.30;99.90;;;;;;5096688;28;20460;-73
2022/12/29 10:32:42;;;;;;;2.13;1.17;;;13.20;99.90;;;;;;5096218;28;20107;-73
2022/12/29 10:35:21;;;;;;;2.28;1.20;;;13.20;99.90;;;;;;5096230;28;20476;-73
2022/12/29 10:38:02;;;;;;;1.33;0.98;;;13.10;99.90;;;;;;5096681;28;20039;-75
2022/12/29 10:40:37;;;;;;;2.97;1.00;;;13.10;99.90;;;;;;5096662;28;20027;-73
2022/12/29 10:43:16;;;;;;;1.35;1.10;;;13.10;99.90;;;;;;5113986;28;20469;-73
2022/12/29 10:45:42;;;;;;;1.67;0.98;;;13.10;99.90;;;;;;5114682;28;20036;-73
2022/12/29 10:48:22;;;;;;;3.85;1.02;;;13.00;99.90;;;;;;5114305;28;20038;-73
2022/12/29 10:50:49;;;;;;;1.88;1.10;;;13.00;99.90;;;;;;5096466;28;20019;-73
2022/12/29 10:53:22;;;;;;;2.40;1.17;;;13.00;99.90;;;;;;5095772;28;20461;-73
2022/12/29 10:55:49;;;;;;;3.53;1.17;;;12.90;99.90;;;;;;5096191;28;20028;-73
2022/12/29 10:58:15;;;;;;;3.72;1.20;;;13.00;99.90;;;;;;5113920;28;20024;-73
2022/12/29 11:00:42;;;;;;;2.17;1.40;;;12.90;99.90;;;;;;5096218;28;20115;-73
2022/12/29 11:03:27;;;;;;;4.28;1.33;;;13.00;99.90;;;;;;5095520;28;20080;-73
2022/12/29 11:06:15;;;;;;;1.80;1.30;;;13.00;99.90;;;;;;5096032;28;20110;-73
2022/12/29 11:08:56;;;;;;;1.83;1.00;;;13.00;99.90;;;;;;5078136;28;20042;-73
2022/12/29 11:11:26;;;;;;;2.25;0.80;;;13.00;99.90;;;;;;5095305;28;20023;-73
2022/12/29 11:13:58;;;;;;;1.63;1.08;;;13.00;99.90;;;;;;5095632;28;20081;-73
2022/12/29 11:16:31;;;;;;;1.38;0.93;;;13.10;99.90;;;;;;5095239;28;20101;-73
2022/12/29 11:18:58;;;;;;;3.05;0.93;;;13.10;99.90;;;;;;5095933;28;20031;-74
2022/12/29 11:21:27;;;;;;;2.60;1.10;;;13.10;99.90;;;;;;5095272;28;20084;-74
2022/12/29 11:24:01;;;;;;;3.75;1.15;;;13.20;99.90;;;;;;5114001;28;20024;-73
2022/12/29 11:26:29;;;;;;;1.50;0.80;;;13.30;99.90;;;;;;5113650;28;20487;-73
2022/12/29 11:29:24;;;;;;;2.30;1.17;;;13.40;99.90;;;;;;5095817;28;20023;-73
2022/12/29 11:31:54;;;;;;;2.03;0.98;;;13.50;99.90;;;;;;5113386;28;20127;-73
2022/12/29 11:34:21;;;;;;;2.40;1.00;;;13.70;99.90;;;;;;5095094;28;20366;-73
2022/12/29 11:36:48;;;;;;;2.85;1.20;;;13.90;99.90;;;;;;5113643;28;20496;-73
2022/12/29 11:39:44;;;;;;;2.53;1.15;;;14.00;99.90;;;;;;5095087;28;20027;-74
2022/12/29 11:42:37;;;;;;;1.88;1.15;;;14.00;99.90;;;;;;5059582;28;20031;-73
2022/12/29 11:45:21;;;;;;;3.50;0.80;;;14.00;99.90;;;;;;5084038;28;20382;-74
2022/12/29 11:47:57;;;;;;;1.85;0.93;;;13.90;99.90;;;;;;5112987;28;20047;-74
2022/12/29 11:50:26;;;;;;;2.55;1.20;;;13.90;99.90;;;;;;5113395;28;20057;-73
2022/12/29 11:52:59;;;;;;;3.92;0.90;;;14.00;99.90;;;;;;5094992;28;20027;-73
2022/12/29 11:55:26;;;;;;;3.17;0.90;;;14.10;99.90;;;;;;5113013;28;20368;-73
2022/12/29 11:57:53;;;;;;;4.40;1.00;;;14.10;99.90;;;;;;5095144;28;20059;-73
2022/12/29 12:00:24;;;;;;;3.85;1.02;;;14.10;99.90;;;;;;5094629;28;20024;-73
2022/12/29 12:02:56;;;;;;;2.33;0.90;;;14.00;99.90;;;;;;5113537;28;20023;-73
2022/12/29 12:05:26;;;;;;;3.35;0.80;;;14.00;99.90;;;;;;5094656;28;20031;-73
2022/12/29 12:08:01;;;;;;;2.22;0.75;;;14.00;99.90;;;;;;5113456;28;20483;-73
2022/12/29 12:10:38;;;;;;;4.00;1.13;;;13.90;99.90;;;;;;5094695;28;20030;-73
2022/12/29 12:13:12;;;;;;;2.65;0.75;;;13.90;99.90;;;;;;5094150;28;20031;-73
2022/12/29 12:15:46;;;;;;;2.00;0.88;;;13.90;99.90;;;;;;5094608;28;20051;-72
2022/12/29 12:18:25;;;;;;;3.00;1.10;;;14.00;99.90;;;;;;5112721;28;20032;-73
2022/12/29 12:21:10;;;;;;;1.35;0.70;;;13.90;99.90;;;;;;5094820;28;20073;-73
2022/12/29 12:24:00;;;;;;;1.55;0.70;;;13.90;99.90;;;;;;5095012;28;20023;-73
2022/12/29 12:26:39;;;;;;;0.77;0.57;;;13.80;99.90;;;;;;5112357;28;20480;-73
2022/12/29 12:29:13;;;;;;;0.55;0.40;;;13.80;99.90;;;;;;5094380;28;20462;-74
2022/12/29 12:31:50;;;;;;;0.70;0.43;;;13.80;99.90;;;;;;5113068;28;20051;-73
2022/12/29 12:34:37;;;;;;;3.15;0.38;;;13.80;99.90;;;;;;5094353;28;20507;-73
2022/12/29 12:37:30;;;;;;;2.03;0.50;;;13.90;99.90;;;;;;5113018;28;20057;-73
2022/12/29 12:40:27;;;;;;;0.82;0.50;;;13.90;99.90;;;;;;5094822;28;20112;-73
2022/12/29 12:43:18;;;;;;;1.63;0.50;;;13.80;99.90;;;;;;5112987;28;20160;-73
2022/12/29 12:46:00;;;;;;;0.60;0.40;;;13.80;99.90;;;;;;5113011;28;20111;-73
2022/12/29 12:48:31;;;;;;;;;;;13.80;99.90;;;;;;5094667;28;20066;-73
2022/12/29 12:51:03;;;;;;;1.20;0.50;;;13.80;99.90;;;;;;5113285;28;20018;-73
2022/12/29 12:53:53;;;;;;;1.08;0.98;;;13.80;99.90;;;;;;5112390;28;20030;-73
2022/12/29 12:56:27;;;;;;;0.80;0.57;;;13.80;99.90;;;;;;5093970;28;20056;-73
2022/12/29 12:59:14;;;;;;;1.52;0.63;;;13.80;99.90;;;;;;5113957;28;20038;-73
2022/12/29 13:01:57;;;;;;;1.23;0.60;;;13.80;99.90;;;;;;5116856;28;20027;-73
2022/12/29 13:04:55;;;;;;;1.38;0.63;;;13.80;99.90;;;;;;5097961;28;20072;-73
2022/12/29 13:08:02;;;;;;;1.80;0.50;;;13.80;99.90;;;;;;5116185;28;20031;-73
2022/12/29 13:10:51;;;;;;;2.60;0.55;;;13.80;99.90;;;;;;5115845;28;20503;-73
2022/12/29 13:13:27;;;;;;;1.98;0.60;;;13.80;99.90;;;;;;5097586;28;20023;-73
2022/12/29 13:16:14;;;;;;;0.70;0.50;;;13.70;99.90;;;;;;5098063;28;20048;-73
2022/12/29 13:19:01;;;;;;;1.42;0.80;;;13.70;99.90;;;;;;5098403;28;20171;-73
2022/12/29 13:21:35;;;;;;;0.93;0.63;;;13.70;99.90;;;;;;5097711;28;20031;-73
2022/12/29 13:24:16;;;;;;;1.88;0.70;;;13.70;99.90;;;;;;5098239;28;20030;-73
2022/12/29 13:26:49;;;;;;;2.90;0.52;;;13.80;99.90;;;;;;5116473;28;20027;-73
2022/12/29 13:29:38;;;;;;;3.63;0.70;;;13.80;99.90;;;;;;5115685;28;20023;-73
2022/12/29 13:32:18;;;;;;;1.40;0.63;;;13.70;99.90;;;;;;5079994;28;20059;-73
2022/12/29 13:35:01;;;;;;;2.90;0.70;;;13.60;99.90;;;;;;5097955;28;20034;-73
2022/12/29 13:37:31;;;;;;;1.58;0.52;;;13.50;99.90;;;;;;5115627;28;20385;-73
2022/12/29 13:40:03;;;;;;;2.28;0.73;;;13.50;99.90;;;;;;5097470;28;20085;-73
2022/12/29 13:42:30;;;;;;;1.92;1.15;;;13.40;99.90;;;;;;5115348;28;20028;-73
2022/12/29 13:44:59;;;;;;;0.80;0.70;;;13.30;99.90;;;;;;5115757;28;20054;-73